createdAt,value
2022-11-19T00:01:20.303Z,67.30
2022-11-19T00:03:52.399Z,67.30
2022-11-19T00:06:23.428Z,67.50
2022-11-19T00:08:51.008Z,67.50
2022-11-19T00:11:39.908Z,67.30
2022-11-19T00:14:07.814Z,67.30
2022-11-19T00:16:35.131Z,67.20
2022-11-19T00:19:02.450Z,67.20
2022-11-19T00:21:31.108Z,67.50
2022-11-19T00:23:58.980Z,67.70
2022-11-19T00:26:26.782Z,67.90
2022-11-19T00:28:54.965Z,68.10
2022-11-19T00:31:22.217Z,68.00
2022-11-19T00:33:50.640Z,68.20
2022-11-19T00:36:18.117Z,68.20
2022-11-19T00:38:46.649Z,68.20
2022-11-19T00:41:13.859Z,68.00
2022-11-19T00:43:47.540Z,68.10
2022-11-19T00:46:15.930Z,68.30
2022-11-19T00:48:43.450Z,68.50
2022-11-19T00:51:11.637Z,68.70
2022-11-19T00:53:38.944Z,68.80
2022-11-19T00:56:10.474Z,68.80
2022-11-19T00:58:37.986Z,68.80
2022-11-19T01:01:06.397Z,68.60
2022-11-19T01:03:34.210Z,68.70
2022-11-19T01:06:01.430Z,68.80
2022-11-19T01:08:29.012Z,68.80
2022-11-19T01:11:03.119Z,68.70
2022-11-19T01:13:34.599Z,68.70
2022-11-19T01:16:03.809Z,68.70
2022-11-19T01:18:31.322Z,68.90
2022-11-19T01:20:58.553Z,69.10
2022-11-19T01:23:25.899Z,69.20
2022-11-19T01:25:53.089Z,69.00
2022-11-19T01:28:20.316Z,69.00
2022-11-19T01:30:48.913Z,69.10
2022-11-19T01:33:16.119Z,69.30
2022-11-19T01:35:43.442Z,69.20
2022-11-19T01:38:10.651Z,69.40
2022-11-19T01:40:43.130Z,69.60
2022-11-19T01:43:12.048Z,69.50
2022-11-19T01:45:41.789Z,69.40
2022-11-19T01:48:17.626Z,69.50
2022-11-19T01:50:48.684Z,69.60
2022-11-19T01:53:16.760Z,69.80
2022-11-19T01:55:44.462Z,69.60
2022-11-19T01:58:14.949Z,69.70
2022-11-19T02:00:42.340Z,69.70
2022-11-19T02:03:12.173Z,69.90
2022-11-19T02:05:41.395Z,69.70
2022-11-19T02:08:10.566Z,69.70
2022-11-19T02:10:48.149Z,69.50
2022-11-19T02:13:22.326Z,69.50
2022-11-19T02:15:53.316Z,69.60
2022-11-19T02:18:37.167Z,69.90
2022-11-19T02:21:22.178Z,70.00
2022-11-19T02:24:09.066Z,70.20
2022-11-19T02:27:11.992Z,70.30
2022-11-19T02:30:01.588Z,70.30
2022-11-19T02:32:32.691Z,70.20
2022-11-19T02:35:09.971Z,70.40
2022-11-19T02:37:44.562Z,70.50
2022-11-19T02:40:19.215Z,70.60
2022-11-19T02:42:54.320Z,70.70
2022-11-19T02:45:28.608Z,70.60
2022-11-19T02:48:00.012Z,70.40
2022-11-19T02:50:31.732Z,70.50
2022-11-19T02:52:59.292Z,70.40
2022-11-19T02:55:27.805Z,70.40
2022-11-19T02:57:59.532Z,70.40
2022-11-19T03:00:49.472Z,70.50
2022-11-19T03:03:37.546Z,70.60
2022-11-19T03:06:09.184Z,70.60
2022-11-19T03:08:36.814Z,70.70
2022-11-19T03:11:12.921Z,70.80
2022-11-19T03:14:10.519Z,70.70
2022-11-19T03:16:41.301Z,70.80
2022-11-19T03:19:19.088Z,70.80
2022-11-19T03:21:54.486Z,71.00
2022-11-19T03:24:27.176Z,70.90
2022-11-19T03:26:59.498Z,70.80
2022-11-19T03:29:31.689Z,71.00
2022-11-19T03:32:04.335Z,71.10
2022-11-19T03:34:33.448Z,71.40
2022-11-19T03:37:02.867Z,71.10
2022-11-19T03:39:30.172Z,71.20
2022-11-19T03:41:58.023Z,71.20
2022-11-19T03:44:32.554Z,71.20
2022-11-19T03:47:06.821Z,71.10
2022-11-19T03:49:37.503Z,71.10
2022-11-19T03:52:10.226Z,71.20
2022-11-19T03:54:38.713Z,71.10
2022-11-19T03:57:07.141Z,71.10
2022-11-19T03:59:35.046Z,71.00
2022-11-19T04:02:06.795Z,71.00
2022-11-19T04:04:37.532Z,71.10
2022-11-19T04:07:11.072Z,71.00
2022-11-19T04:09:39.405Z,71.20
2022-11-19T04:12:08.381Z,71.10
2022-11-19T04:14:35.613Z,71.10
2022-11-19T04:17:04.128Z,71.10
2022-11-19T04:19:31.340Z,71.00
2022-11-19T04:21:58.515Z,71.40
2022-11-19T04:24:25.709Z,71.20
2022-11-19T04:26:52.895Z,71.10
2022-11-19T04:29:20.475Z,71.00
2022-11-19T04:31:47.819Z,71.20
2022-11-19T04:34:16.359Z,71.30
2022-11-19T04:36:43.565Z,71.30
2022-11-19T04:39:12.382Z,71.40
2022-11-19T04:41:40.538Z,71.50
2022-11-19T04:44:07.841Z,71.20
2022-11-19T04:46:35.077Z,71.40
2022-11-19T04:49:02.387Z,71.30
2022-11-19T04:51:30.923Z,71.20
2022-11-19T04:53:58.116Z,71.10
2022-11-19T04:56:25.327Z,70.90
2022-11-19T04:58:52.758Z,70.90
2022-11-19T05:01:20.622Z,70.90
2022-11-19T05:03:48.048Z,70.70
2022-11-19T05:06:15.291Z,70.70
2022-11-19T05:08:43.897Z,70.70
2022-11-19T05:11:11.171Z,70.80
2022-11-19T05:13:38.377Z,70.60
2022-11-19T05:16:06.067Z,70.80
2022-11-19T05:18:33.236Z,70.80
2022-11-19T05:21:00.566Z,70.80
2022-11-19T05:23:27.827Z,70.80
2022-11-19T05:25:56.532Z,70.90
2022-11-19T05:28:37.645Z,70.80
2022-11-19T05:31:06.253Z,70.90
2022-11-19T05:33:34.462Z,70.90
2022-11-19T05:36:02.047Z,70.90
2022-11-19T05:38:29.361Z,70.70
2022-11-19T05:40:57.987Z,70.80
2022-11-19T05:43:25.265Z,70.80
2022-11-19T05:45:52.441Z,71.10
2022-11-19T05:48:19.820Z,71.10
2022-11-19T05:50:47.018Z,71.00
2022-11-19T05:53:14.208Z,71.00
2022-11-19T05:55:41.422Z,71.20
2022-11-19T05:58:09.934Z,71.10
2022-11-19T06:00:37.409Z,70.80
2022-11-19T06:03:04.683Z,70.80
2022-11-19T06:05:34.727Z,70.90
2022-11-19T06:08:06.547Z,70.80
2022-11-19T06:10:33.759Z,70.50
2022-11-19T06:13:01.767Z,70.20
2022-11-19T06:15:30.321Z,70.00
2022-11-19T06:17:57.604Z,69.90
2022-11-19T06:20:24.853Z,69.80
2022-11-19T06:22:52.104Z,69.70
2022-11-19T06:25:19.585Z,69.50
2022-11-19T06:27:46.843Z,69.50
2022-11-19T06:30:14.767Z,69.60
2022-11-19T06:32:43.569Z,69.60
2022-11-19T06:35:10.791Z,69.50
2022-11-19T06:37:38.009Z,69.40
2022-11-19T06:40:06.418Z,69.40
2022-11-19T06:42:36.600Z,69.30
2022-11-19T06:45:05.267Z,69.10
2022-11-19T06:47:33.227Z,69.00
2022-11-19T06:50:01.945Z,68.90
2022-11-19T06:52:29.173Z,68.80
2022-11-19T06:54:56.558Z,68.80
2022-11-19T06:57:23.739Z,68.90
2022-11-19T06:59:51.140Z,69.00
2022-11-19T07:02:21.417Z,69.10
2022-11-19T07:04:49.006Z,69.30
2022-11-19T07:07:17.722Z,69.40
2022-11-19T07:09:44.959Z,69.30
2022-11-19T07:12:12.174Z,69.50
2022-11-19T07:14:39.427Z,69.50
2022-11-19T07:17:06.656Z,69.50
2022-11-19T07:19:33.918Z,69.60
2022-11-19T07:22:01.162Z,69.90
2022-11-19T07:24:29.697Z,70.30
2022-11-19T07:26:56.955Z,70.40
2022-11-19T07:29:24.183Z,70.60
2022-11-19T07:31:53.354Z,70.80
2022-11-19T07:34:21.101Z,70.90
2022-11-19T07:36:50.041Z,70.70
2022-11-19T07:39:17.910Z,70.60
2022-11-19T07:42:05.600Z,70.70
2022-11-19T07:44:34.165Z,69.90
2022-11-19T07:47:01.398Z,69.10
2022-11-19T07:49:28.641Z,69.00
2022-11-19T07:51:55.862Z,68.90
2022-11-19T07:54:23.073Z,68.70
2022-11-19T07:56:51.823Z,68.70
2022-11-19T07:59:19.293Z,68.50
2022-11-19T08:01:46.775Z,68.50
2022-11-19T08:04:14.170Z,68.20
2022-11-19T08:06:41.488Z,67.60
2022-11-19T08:09:08.942Z,67.30
2022-11-19T08:11:36.174Z,67.00
2022-11-19T08:14:04.735Z,65.80
2022-11-19T08:16:51.810Z,65.50
2022-11-19T08:19:19.418Z,64.70
2022-11-19T08:21:47.857Z,63.70
2022-11-19T08:24:16.874Z,63.70
2022-11-19T08:26:44.775Z,63.60
2022-11-19T08:29:16.412Z,63.50
2022-11-19T08:31:46.870Z,63.70
2022-11-19T08:34:14.817Z,62.60
2022-11-19T08:36:42.119Z,63.30
2022-11-19T08:39:09.714Z,62.40
2022-11-19T08:41:55.821Z,62.60
2022-11-19T08:44:24.334Z,62.30
2022-11-19T08:46:51.556Z,63.30
2022-11-19T08:49:18.879Z,62.70
2022-11-19T08:51:46.116Z,62.00
2022-11-19T08:54:13.476Z,62.70
2022-11-19T08:56:41.023Z,62.70
2022-11-19T08:59:08.565Z,62.20
2022-11-19T09:01:37.060Z,62.50
2022-11-19T09:04:04.558Z,61.60
2022-11-19T09:06:34.750Z,61.50
2022-11-19T09:09:02.093Z,62.00
2022-11-19T09:11:29.342Z,62.10
2022-11-19T09:13:56.866Z,61.50
2022-11-19T09:16:24.206Z,61.50
2022-11-19T09:18:52.751Z,61.40
2022-11-19T09:21:20.028Z,60.50
2022-11-19T09:23:47.245Z,60.50
2022-11-19T09:26:16.171Z,60.70
2022-11-19T09:28:43.961Z,60.00
2022-11-19T09:31:14.417Z,60.80
2022-11-19T09:33:43.855Z,61.30
2022-11-19T09:36:13.184Z,61.70
2022-11-19T09:38:40.954Z,61.50
2022-11-19T09:41:34.015Z,61.00
2022-11-19T09:44:12.131Z,60.20
2022-11-19T09:46:46.254Z,60.30
2022-11-19T09:49:18.621Z,60.00
2022-11-19T09:51:52.983Z,60.50
2022-11-19T09:54:22.109Z,61.50
2022-11-19T09:56:54.100Z,60.90
2022-11-19T09:59:25.968Z,58.80
2022-11-19T10:01:53.810Z,58.30
2022-11-19T10:04:23.292Z,58.60
2022-11-19T10:07:06.491Z,58.20
2022-11-19T10:09:47.461Z,57.60
2022-11-19T10:12:26.452Z,58.40
2022-11-19T10:15:12.047Z,57.50
2022-11-19T10:17:49.814Z,56.70
2022-11-19T10:20:44.099Z,57.00
2022-11-19T10:23:17.391Z,56.20
2022-11-19T10:25:46.378Z,55.70
2022-11-19T10:28:15.194Z,56.10
2022-11-19T10:30:46.759Z,56.60
2022-11-19T10:33:19.829Z,56.20
2022-11-19T10:35:50.393Z,56.60
2022-11-19T10:38:22.681Z,57.10
2022-11-19T10:40:55.835Z,55.30
2022-11-19T10:43:30.057Z,56.00
2022-11-19T10:46:00.062Z,57.20
2022-11-19T10:48:38.924Z,56.50
2022-11-19T10:51:12.827Z,55.60
2022-11-19T10:53:42.562Z,54.60
2022-11-19T10:56:14.258Z,55.40
2022-11-19T10:58:45.528Z,56.30
2022-11-19T11:01:16.955Z,53.80
2022-11-19T11:03:49.412Z,53.20
2022-11-19T11:06:16.816Z,53.30
2022-11-19T11:08:50.703Z,53.30
2022-11-19T11:11:25.562Z,53.70
2022-11-19T11:14:11.512Z,52.90
2022-11-19T11:16:46.312Z,51.40
2022-11-19T11:19:16.524Z,51.60
2022-11-19T11:21:45.714Z,53.00
2022-11-19T11:24:14.496Z,53.70
2022-11-19T11:26:41.833Z,52.00
2022-11-19T11:29:26.192Z,51.90
2022-11-19T11:31:53.874Z,53.50
2022-11-19T11:34:32.392Z,54.40
2022-11-19T11:37:02.837Z,54.20
2022-11-19T11:39:34.499Z,53.30
2022-11-19T11:42:07.060Z,54.10
2022-11-19T11:44:37.774Z,54.30
2022-11-19T11:47:12.839Z,53.50
2022-11-19T11:49:42.957Z,53.80
2022-11-19T11:52:18.153Z,54.20
2022-11-19T11:54:58.594Z,54.40
2022-11-19T11:57:28.249Z,54.70
2022-11-19T11:59:55.882Z,55.30
2022-11-19T12:02:30.492Z,55.60
2022-11-19T12:05:01.118Z,56.00
2022-11-19T12:07:46.925Z,55.30
2022-11-19T12:10:25.068Z,54.70
2022-11-19T12:13:01.926Z,54.80
2022-11-19T12:15:40.106Z,54.60
2022-11-19T12:18:17.527Z,52.00
2022-11-19T12:20:52.517Z,52.10
2022-11-19T12:23:41.311Z,53.00
2022-11-19T12:26:17.244Z,51.80
2022-11-19T12:29:06.893Z,52.80
2022-11-19T12:31:54.127Z,52.50
2022-11-19T12:34:39.043Z,52.40
2022-11-19T12:37:21.670Z,53.40
2022-11-19T12:39:54.031Z,53.60
2022-11-19T12:42:49.323Z,53.70
2022-11-19T12:45:24.305Z,54.50
2022-11-19T12:48:13.347Z,54.30
2022-11-19T12:50:48.302Z,54.50
2022-11-19T12:53:33.628Z,54.70
2022-11-19T12:56:13.968Z,55.10
2022-11-19T12:58:51.721Z,55.50
2022-11-19T13:01:26.437Z,56.30
2022-11-19T13:04:02.240Z,57.00
2022-11-19T13:06:35.469Z,57.60
2022-11-19T13:09:06.853Z,58.10
2022-11-19T13:11:38.244Z,58.50
2022-11-19T13:14:14.963Z,58.90
2022-11-19T13:16:43.147Z,58.90
2022-11-19T13:19:20.772Z,59.40
2022-11-19T13:21:53.834Z,59.40
2022-11-19T13:24:31.341Z,59.70
2022-11-19T13:27:03.777Z,59.50
2022-11-19T13:29:41.117Z,59.70
2022-11-19T13:32:17.185Z,59.90
2022-11-19T13:34:58.505Z,59.90
2022-11-19T13:37:38.993Z,60.30
2022-11-19T13:40:16.678Z,60.80
2022-11-19T13:43:30.441Z,61.80
2022-11-19T13:46:03.108Z,62.50
2022-11-19T13:48:34.240Z,63.40
2022-11-19T13:51:04.784Z,64.60
2022-11-19T13:53:37.892Z,65.00
2022-11-19T13:56:12.358Z,65.40
2022-11-19T13:58:45.676Z,65.10
2022-11-19T14:01:39.991Z,65.60
2022-11-19T14:04:30.174Z,65.70
2022-11-19T14:07:19.412Z,65.40
2022-11-19T14:09:57.861Z,65.40
2022-11-19T14:12:45.438Z,65.80
2022-11-19T14:15:47.709Z,65.90
2022-11-19T14:18:43.426Z,66.00
2022-11-19T14:21:59.673Z,66.30
2022-11-19T14:25:10.446Z,66.70
2022-11-19T14:27:38.122Z,66.90
2022-11-19T14:30:07.741Z,66.80
2022-11-19T14:32:39.260Z,66.80
2022-11-19T14:35:27.610Z,66.70
2022-11-19T14:37:57.548Z,67.20
2022-11-19T14:40:27.706Z,67.80
2022-11-19T14:43:41.970Z,67.60
2022-11-19T14:46:24.629Z,67.70
2022-11-19T14:48:56.502Z,68.80
2022-11-19T14:51:31.056Z,68.90
2022-11-19T14:54:03.597Z,69.60
2022-11-19T14:56:33.787Z,69.60
2022-11-19T14:59:08.866Z,71.20
2022-11-19T15:01:49.911Z,72.30
2022-11-19T15:04:21.628Z,71.90
2022-11-19T15:06:51.354Z,71.90
2022-11-19T15:09:53.051Z,72.20
2022-11-19T15:12:20.950Z,72.00
2022-11-19T15:15:07.180Z,72.20
2022-11-19T15:17:35.428Z,72.40
2022-11-19T15:20:21.790Z,73.30
2022-11-19T15:23:04.168Z,73.40
2022-11-19T15:25:44.318Z,73.10
2022-11-19T15:28:28.132Z,73.10
2022-11-19T15:31:14.766Z,73.30
2022-11-19T15:34:09.076Z,73.90
2022-11-19T15:36:39.651Z,74.20
2022-11-19T15:39:15.392Z,74.10
2022-11-19T15:42:00.311Z,73.90
2022-11-19T15:44:33.706Z,74.30
2022-11-19T15:47:04.504Z,74.30
2022-11-19T15:49:34.839Z,74.40
2022-11-19T15:52:17.411Z,74.60
2022-11-19T15:54:46.350Z,74.50
2022-11-19T15:57:23.536Z,74.80
2022-11-19T15:59:55.396Z,75.30
2022-11-19T16:02:31.264Z,74.80
2022-11-19T16:04:58.475Z,75.00
2022-11-19T16:07:28.936Z,75.20
2022-11-19T16:09:58.619Z,75.00
2022-11-19T16:12:46.791Z,75.10
2022-11-19T16:15:39.048Z,75.40
2022-11-19T16:18:12.771Z,75.60
2022-11-19T16:20:40.771Z,75.50
2022-11-19T16:23:10.236Z,75.60
2022-11-19T16:25:41.030Z,75.70
2022-11-19T16:28:12.663Z,75.80
2022-11-19T16:30:44.077Z,75.60
2022-11-19T16:33:17.839Z,75.40
2022-11-19T16:35:49.719Z,75.60
2022-11-19T16:38:25.833Z,75.60
2022-11-19T16:41:13.826Z,75.70
2022-11-19T16:43:43.684Z,75.70
2022-11-19T16:46:14.740Z,75.60
2022-11-19T16:48:55.538Z,75.20
2022-11-19T16:51:32.071Z,75.40
2022-11-19T16:53:59.832Z,75.40
2022-11-19T16:56:33.512Z,75.90
2022-11-19T16:59:03.720Z,76.50
2022-11-19T17:01:31.508Z,76.40
2022-11-19T17:04:02.702Z,76.50
2022-11-19T17:06:32.843Z,76.80
2022-11-19T17:09:01.250Z,76.90
2022-11-19T17:12:09.681Z,77.10
2022-11-19T17:14:52.287Z,77.20
2022-11-19T17:17:40.402Z,77.00
2022-11-19T17:20:58.874Z,77.10
2022-11-19T17:23:28.319Z,77.70
2022-11-19T17:25:57.932Z,78.10
2022-11-19T17:28:37.942Z,77.90
2022-11-19T17:31:13.535Z,77.60
2022-11-19T17:33:51.489Z,77.60
2022-11-19T17:36:18.769Z,77.40
2022-11-19T17:38:46.229Z,77.60
2022-11-19T17:41:16.324Z,77.50
2022-11-19T17:44:03.791Z,77.30
2022-11-19T17:46:30.995Z,77.50
2022-11-19T17:48:58.253Z,77.20
2022-11-19T17:51:26.333Z,77.50
2022-11-19T17:53:55.526Z,77.50
2022-11-19T17:56:26.021Z,77.50
2022-11-19T17:58:55.012Z,77.30
2022-11-19T18:01:22.814Z,77.20
2022-11-19T18:03:50.228Z,77.30
2022-11-19T18:06:18.117Z,77.30
2022-11-19T18:08:45.853Z,77.40
2022-11-19T18:11:15.898Z,77.60
2022-11-19T18:13:44.215Z,77.50
2022-11-19T18:16:18.060Z,77.70
2022-11-19T18:18:45.800Z,77.60
2022-11-19T18:21:15.586Z,77.60
2022-11-19T18:23:44.544Z,78.10
2022-11-19T18:26:13.269Z,78.30
2022-11-19T18:28:43.799Z,78.70
2022-11-19T18:31:17.036Z,78.80
2022-11-19T18:33:45.325Z,78.50
2022-11-19T18:36:12.659Z,78.20
2022-11-19T18:38:39.893Z,78.20
2022-11-19T18:41:09.188Z,78.30
2022-11-19T18:43:55.315Z,78.20
2022-11-19T18:46:24.082Z,78.10
2022-11-19T18:48:51.358Z,77.70
2022-11-19T18:51:18.664Z,77.70
2022-11-19T18:53:45.882Z,78.00
2022-11-19T18:56:15.523Z,78.50
2022-11-19T18:58:42.936Z,78.60
2022-11-19T19:01:11.049Z,78.50
2022-11-19T19:03:39.724Z,78.40
2022-11-19T19:06:08.462Z,78.70
2022-11-19T19:08:36.605Z,78.50
2022-11-19T19:11:24.683Z,78.40
2022-11-19T19:13:52.446Z,78.30
2022-11-19T19:16:19.683Z,78.30
2022-11-19T19:18:48.678Z,79.00
2022-11-19T19:21:18.024Z,79.10
2022-11-19T19:23:45.398Z,79.10
2022-11-19T19:26:14.105Z,79.10
2022-11-19T19:28:41.866Z,78.90
2022-11-19T19:31:12.408Z,78.70
2022-11-19T19:33:46.073Z,78.30
2022-11-19T19:36:15.317Z,78.20
2022-11-19T19:38:43.030Z,78.20
2022-11-19T19:41:13.919Z,78.20
2022-11-19T19:43:41.090Z,78.30
2022-11-19T19:46:15.812Z,78.40
2022-11-19T19:48:43.497Z,78.40
2022-11-19T19:51:11.984Z,78.40
2022-11-19T19:53:41.726Z,78.40
2022-11-19T19:56:12.874Z,78.30
2022-11-19T19:58:40.257Z,78.10
2022-11-19T20:01:09.487Z,78.10
2022-11-19T20:03:36.758Z,78.00
2022-11-19T20:06:06.538Z,78.20
2022-11-19T20:08:34.223Z,78.40
2022-11-19T20:11:04.545Z,78.50
2022-11-19T20:13:32.166Z,78.80
2022-11-19T20:16:03.846Z,78.90
2022-11-19T20:18:32.588Z,78.90
2022-11-19T20:21:00.718Z,78.90
2022-11-19T20:23:28.203Z,78.50
2022-11-19T20:25:59.468Z,78.70
2022-11-19T20:28:28.415Z,78.90
2022-11-19T20:31:02.979Z,79.00
2022-11-19T20:33:30.372Z,79.10
2022-11-19T20:35:57.708Z,78.80
2022-11-19T20:38:25.263Z,78.60
2022-11-19T20:40:57.173Z,78.50
2022-11-19T20:43:48.878Z,78.60
2022-11-19T20:46:21.383Z,78.80
2022-11-19T20:48:49.686Z,78.50
2022-11-19T20:51:19.691Z,78.70
2022-11-19T20:53:47.054Z,78.90
2022-11-19T20:56:14.570Z,79.00
2022-11-19T20:58:41.762Z,79.10
2022-11-19T21:01:10.407Z,79.10
2022-11-19T21:03:39.398Z,78.90
2022-11-19T21:06:07.958Z,79.20
2022-11-19T21:08:36.015Z,79.00
2022-11-19T21:11:05.247Z,78.80
2022-11-19T21:13:32.611Z,78.90
2022-11-19T21:15:59.832Z,79.40
2022-11-19T21:18:30.120Z,79.30
2022-11-19T21:21:02.095Z,78.90
2022-11-19T21:23:29.978Z,79.00
2022-11-19T21:26:01.111Z,79.40
2022-11-19T21:28:29.217Z,79.40
2022-11-19T21:30:56.443Z,79.10
2022-11-19T21:33:26.287Z,79.30
2022-11-19T21:35:53.670Z,79.40
2022-11-19T21:38:22.611Z,79.20
2022-11-19T21:40:50.630Z,79.20
2022-11-19T21:43:18.278Z,79.30
2022-11-19T21:45:45.833Z,79.20
2022-11-19T21:48:13.077Z,78.60
2022-11-19T21:50:41.045Z,78.80
2022-11-19T21:53:09.151Z,79.10
2022-11-19T21:55:37.920Z,78.90
2022-11-19T21:58:05.991Z,78.70
2022-11-19T22:00:34.069Z,79.10
2022-11-19T22:03:01.606Z,78.90
2022-11-19T22:05:28.785Z,79.00
2022-11-19T22:07:58.291Z,78.80
2022-11-19T22:10:26.220Z,78.80
2022-11-19T22:12:56.185Z,78.90
2022-11-19T22:15:23.398Z,78.90
2022-11-19T22:17:50.586Z,78.40
2022-11-19T22:20:17.908Z,78.40
2022-11-19T22:22:45.985Z,78.60
2022-11-19T22:25:13.843Z,78.60
2022-11-19T22:27:41.699Z,78.70
2022-11-19T22:30:11.737Z,78.70
2022-11-19T22:32:38.948Z,79.10
2022-11-19T22:35:07.064Z,79.60
2022-11-19T22:37:34.261Z,79.70
2022-11-19T22:40:01.470Z,79.50
2022-11-19T22:42:28.690Z,79.70
2022-11-19T22:44:55.908Z,79.80
2022-11-19T22:47:24.447Z,79.70
2022-11-19T22:49:51.667Z,79.10
2022-11-19T22:52:18.876Z,78.60
2022-11-19T22:54:46.092Z,79.20
2022-11-19T22:57:13.282Z,79.60
2022-11-19T22:59:40.480Z,79.50
2022-11-19T23:02:07.644Z,79.40
2022-11-19T23:04:36.151Z,79.30
2022-11-19T23:07:03.449Z,79.40
2022-11-19T23:09:30.676Z,79.40
2022-11-19T23:12:16.529Z,79.20
2022-11-19T23:14:43.730Z,79.20
2022-11-19T23:17:10.947Z,78.90
2022-11-19T23:19:39.466Z,78.80
2022-11-19T23:22:06.750Z,78.70
2022-11-19T23:24:34.042Z,78.60
2022-11-19T23:27:01.830Z,79.10
2022-11-19T23:29:29.039Z,78.70
2022-11-19T23:31:56.239Z,79.00
2022-11-19T23:34:23.494Z,79.20
2022-11-19T23:36:52.930Z,79.00
2022-11-19T23:39:20.383Z,79.30
2022-11-19T23:41:47.697Z,79.10
2022-11-19T23:44:14.969Z,78.90
2022-11-19T23:46:42.308Z,78.40
2022-11-19T23:49:11.436Z,78.30
2022-11-19T23:51:39.007Z,78.00
2022-11-19T23:54:07.570Z,78.60
2022-11-19T23:56:36.265Z,78.50
2022-11-19T23:59:04.957Z,78.30
